Laneville, Texas
Current Conditions -  °F | °C
As of 12:15 PM on Tuesday 21 Oct 2014 (Local Time) from KRFI Reporting Station
Clear Clear  
Wind Chill: 76°   Ceiling: Unl
Heat Index: 78°   Visibility: 10mi
Dew Point: 54°   Wind: 0mph
Humidity: 46%   Direction: NA
Pressure: 30.12"   Gusts: NA
Location:  31.97°N, 94.81°W
Report Text: KRFI 211715Z AUTO 00000KT 10SM CLR 25/12 A3012 RMK AO2 T02470122
Loading
Personal Weather Stations






























Interactive Weather Map
Tropical Storm Tracking
New forecast layout! Learn more

10-Day Weather Forecast

Advertisements
Track Severe Weather on mobile